sensor_id;sensor_type;location;lat;lon;timestamp;P1;durP1;ratioP1;P2;durP2;ratioP2
8333;SDS011;4204;43.004;23.052;2023-03-11T00:01:45;2.83;;;2.00;;
8333;SDS011;4204;43.004;23.052;2023-03-11T00:04:12;2.73;;;1.53;;
8333;SDS011;4204;43.004;23.052;2023-03-11T00:06:40;2.50;;;1.80;;
8333;SDS011;4204;43.004;23.052;2023-03-11T00:09:08;2.53;;;2.00;;
8333;SDS011;4204;43.004;23.052;2023-03-11T00:11:35;2.63;;;1.90;;
8333;SDS011;4204;43.004;23.052;2023-03-11T00:14:03;8.07;;;2.57;;
8333;SDS011;4204;43.004;23.052;2023-03-11T00:16:31;6.13;;;3.03;;
8333;SDS011;4204;43.004;23.052;2023-03-11T00:19:00;3.03;;;2.20;;
8333;SDS011;4204;43.004;23.052;2023-03-11T00:21:28;3.77;;;2.40;;
8333;SDS011;4204;43.004;23.052;2023-03-11T00:23:55;4.30;;;2.97;;
8333;SDS011;4204;43.004;23.052;2023-03-11T00:26:26;5.63;;;3.00;;
8333;SDS011;4204;43.004;23.052;2023-03-11T00:28:53;5.57;;;3.33;;
8333;SDS011;4204;43.004;23.052;2023-03-11T00:31:21;4.43;;;3.27;;
8333;SDS011;4204;43.004;23.052;2023-03-11T00:33:51;4.37;;;2.83;;
8333;SDS011;4204;43.004;23.052;2023-03-11T00:36:22;6.47;;;3.20;;
8333;SDS011;4204;43.004;23.052;2023-03-11T00:38:53;7.47;;;4.10;;
8333;SDS011;4204;43.004;23.052;2023-03-11T00:41:21;8.23;;;3.73;;
8333;SDS011;4204;43.004;23.052;2023-03-11T00:43:49;5.13;;;2.83;;
8333;SDS011;4204;43.004;23.052;2023-03-11T00:46:16;8.73;;;3.43;;
8333;SDS011;4204;43.004;23.052;2023-03-11T00:48:44;4.20;;;2.47;;
8333;SDS011;4204;43.004;23.052;2023-03-11T00:51:13;2.00;;;1.60;;
8333;SDS011;4204;43.004;23.052;2023-03-11T00:53:43;2.50;;;1.90;;
8333;SDS011;4204;43.004;23.052;2023-03-11T00:56:11;1.27;;;1.13;;
8333;SDS011;4204;43.004;23.052;2023-03-11T00:58:42;1.20;;;1.03;;
8333;SDS011;4204;43.004;23.052;2023-03-11T01:01:11;1.60;;;1.10;;
8333;SDS011;4204;43.004;23.052;2023-03-11T01:03:40;2.20;;;1.40;;
8333;SDS011;4204;43.004;23.052;2023-03-11T01:06:11;1.00;;;0.87;;
8333;SDS011;4204;43.004;23.052;2023-03-11T01:08:39;1.20;;;0.80;;
8333;SDS011;4204;43.004;23.052;2023-03-11T01:11:08;1.53;;;1.00;;
8333;SDS011;4204;43.004;23.052;2023-03-11T01:13:37;1.20;;;0.90;;
8333;SDS011;4204;43.004;23.052;2023-03-11T01:16:05;1.50;;;1.00;;
8333;SDS011;4204;43.004;23.052;2023-03-11T01:18:34;1.20;;;1.10;;
8333;SDS011;4204;43.004;23.052;2023-03-11T01:21:01;1.17;;;1.00;;
8333;SDS011;4204;43.004;23.052;2023-03-11T01:23:29;1.33;;;1.20;;
8333;SDS011;4204;43.004;23.052;2023-03-11T01:25:58;1.40;;;1.30;;
8333;SDS011;4204;43.004;23.052;2023-03-11T01:28:27;1.63;;;1.30;;
8333;SDS011;4204;43.004;23.052;2023-03-11T01:30:57;3.33;;;1.57;;
8333;SDS011;4204;43.004;23.052;2023-03-11T01:33:26;2.10;;;1.60;;
8333;SDS011;4204;43.004;23.052;2023-03-11T01:35:54;1.97;;;1.40;;
8333;SDS011;4204;43.004;23.052;2023-03-11T01:38:21;2.03;;;1.40;;
8333;SDS011;4204;43.004;23.052;2023-03-11T01:40:50;1.50;;;1.30;;
8333;SDS011;4204;43.004;23.052;2023-03-11T01:43:37;1.87;;;1.30;;
8333;SDS011;4204;43.004;23.052;2023-03-11T01:46:13;1.40;;;1.30;;
8333;SDS011;4204;43.004;23.052;2023-03-11T01:48:45;1.10;;;1.00;;
8333;SDS011;4204;43.004;23.052;2023-03-11T01:51:14;1.37;;;1.10;;
8333;SDS011;4204;43.004;23.052;2023-03-11T01:53:45;1.37;;;1.20;;
8333;SDS011;4204;43.004;23.052;2023-03-11T01:56:13;2.20;;;1.00;;
8333;SDS011;4204;43.004;23.052;2023-03-11T01:58:43;4.20;;;1.10;;
8333;SDS011;4204;43.004;23.052;2023-03-11T02:01:15;3.33;;;1.97;;
8333;SDS011;4204;43.004;23.052;2023-03-11T02:03:43;1.43;;;1.10;;
8333;SDS011;4204;43.004;23.052;2023-03-11T02:06:11;1.33;;;1.20;;
8333;SDS011;4204;43.004;23.052;2023-03-11T02:08:42;1.00;;;0.90;;
8333;SDS011;4204;43.004;23.052;2023-03-11T02:11:13;1.97;;;1.00;;
8333;SDS011;4204;43.004;23.052;2023-03-11T02:13:45;1.87;;;1.30;;
8333;SDS011;4204;43.004;23.052;2023-03-11T02:16:14;2.33;;;1.17;;
8333;SDS011;4204;43.004;23.052;2023-03-11T02:18:43;1.87;;;1.43;;
8333;SDS011;4204;43.004;23.052;2023-03-11T02:21:14;4.10;;;2.20;;
8333;SDS011;4204;43.004;23.052;2023-03-11T02:23:51;6.27;;;2.40;;
8333;SDS011;4204;43.004;23.052;2023-03-11T02:26:24;2.63;;;2.00;;
8333;SDS011;4204;43.004;23.052;2023-03-11T02:28:58;2.53;;;2.10;;
8333;SDS011;4204;43.004;23.052;2023-03-11T02:31:29;3.30;;;2.00;;
8333;SDS011;4204;43.004;23.052;2023-03-11T02:34:00;3.23;;;2.40;;
8333;SDS011;4204;43.004;23.052;2023-03-11T02:36:32;3.60;;;1.90;;
8333;SDS011;4204;43.004;23.052;2023-03-11T02:39:03;1.93;;;1.70;;
8333;SDS011;4204;43.004;23.052;2023-03-11T02:41:32;2.50;;;1.60;;
8333;SDS011;4204;43.004;23.052;2023-03-11T02:44:06;3.43;;;1.50;;
8333;SDS011;4204;43.004;23.052;2023-03-11T02:46:37;2.80;;;1.70;;
8333;SDS011;4204;43.004;23.052;2023-03-11T02:49:08;1.73;;;1.60;;
8333;SDS011;4204;43.004;23.052;2023-03-11T02:51:36;2.87;;;1.83;;
8333;SDS011;4204;43.004;23.052;2023-03-11T02:54:04;1.70;;;1.33;;
8333;SDS011;4204;43.004;23.052;2023-03-11T02:56:33;1.33;;;1.20;;
8333;SDS011;4204;43.004;23.052;2023-03-11T02:59:01;1.90;;;1.20;;
8333;SDS011;4204;43.004;23.052;2023-03-11T03:01:30;1.10;;;1.00;;
8333;SDS011;4204;43.004;23.052;2023-03-11T03:03:59;6.70;;;1.37;;
8333;SDS011;4204;43.004;23.052;2023-03-11T03:06:30;1.33;;;1.07;;
8333;SDS011;4204;43.004;23.052;2023-03-11T03:08:58;1.77;;;1.00;;
8333;SDS011;4204;43.004;23.052;2023-03-11T03:11:26;2.23;;;1.20;;
8333;SDS011;4204;43.004;23.052;2023-03-11T03:13:54;1.53;;;1.43;;
8333;SDS011;4204;43.004;23.052;2023-03-11T03:16:22;1.73;;;1.40;;
8333;SDS011;4204;43.004;23.052;2023-03-11T03:18:51;2.17;;;1.53;;
8333;SDS011;4204;43.004;23.052;2023-03-11T03:21:19;2.77;;;1.87;;
8333;SDS011;4204;43.004;23.052;2023-03-11T03:23:47;1.80;;;1.50;;
8333;SDS011;4204;43.004;23.052;2023-03-11T03:26:15;2.40;;;1.37;;
8333;SDS011;4204;43.004;23.052;2023-03-11T03:28:46;2.93;;;2.00;;
8333;SDS011;4204;43.004;23.052;2023-03-11T03:31:15;3.20;;;2.90;;
8333;SDS011;4204;43.004;23.052;2023-03-11T03:33:43;4.40;;;2.50;;
8333;SDS011;4204;43.004;23.052;2023-03-11T03:36:13;1.70;;;1.60;;
8333;SDS011;4204;43.004;23.052;2023-03-11T03:38:45;0.90;;;0.90;;
8333;SDS011;4204;43.004;23.052;2023-03-11T03:41:14;1.30;;;1.00;;
8333;SDS011;4204;43.004;23.052;2023-03-11T03:43:42;1.17;;;1.07;;
8333;SDS011;4204;43.004;23.052;2023-03-11T03:46:11;1.80;;;1.10;;
8333;SDS011;4204;43.004;23.052;2023-03-11T03:48:42;2.67;;;1.90;;
8333;SDS011;4204;43.004;23.052;2023-03-11T03:51:13;2.20;;;1.83;;
8333;SDS011;4204;43.004;23.052;2023-03-11T03:53:57;1.90;;;1.80;;
8333;SDS011;4204;43.004;23.052;2023-03-11T03:56:25;2.00;;;1.80;;
8333;SDS011;4204;43.004;23.052;2023-03-11T03:58:54;3.53;;;1.93;;
8333;SDS011;4204;43.004;23.052;2023-03-11T04:01:25;2.00;;;1.80;;
8333;SDS011;4204;43.004;23.052;2023-03-11T04:03:54;3.53;;;2.57;;
8333;SDS011;4204;43.004;23.052;2023-03-11T04:06:25;3.60;;;2.40;;
8333;SDS011;4204;43.004;23.052;2023-03-11T04:08:57;3.50;;;2.60;;
8333;SDS011;4204;43.004;23.052;2023-03-11T04:11:29;3.23;;;2.23;;
8333;SDS011;4204;43.004;23.052;2023-03-11T04:13:58;2.80;;;2.57;;
8333;SDS011;4204;43.004;23.052;2023-03-11T04:16:27;2.57;;;1.60;;
8333;SDS011;4204;43.004;23.052;2023-03-11T04:19:00;2.20;;;1.90;;
8333;SDS011;4204;43.004;23.052;2023-03-11T04:21:31;3.27;;;2.33;;
8333;SDS011;4204;43.004;23.052;2023-03-11T04:24:00;2.20;;;1.90;;
8333;SDS011;4204;43.004;23.052;2023-03-11T04:26:32;2.00;;;1.70;;
8333;SDS011;4204;43.004;23.052;2023-03-11T04:29:01;3.37;;;1.50;;
8333;SDS011;4204;43.004;23.052;2023-03-11T04:31:32;2.43;;;1.93;;
8333;SDS011;4204;43.004;23.052;2023-03-11T04:34:04;2.07;;;1.87;;
8333;SDS011;4204;43.004;23.052;2023-03-11T04:36:34;1.53;;;1.30;;
8333;SDS011;4204;43.004;23.052;2023-03-11T04:39:02;1.50;;;1.37;;
8333;SDS011;4204;43.004;23.052;2023-03-11T04:41:33;1.33;;;1.20;;
8333;SDS011;4204;43.004;23.052;2023-03-11T04:44:01;1.50;;;1.30;;
8333;SDS011;4204;43.004;23.052;2023-03-11T04:46:29;1.50;;;1.40;;
8333;SDS011;4204;43.004;23.052;2023-03-11T04:48:58;1.80;;;1.70;;
8333;SDS011;4204;43.004;23.052;2023-03-11T04:51:26;1.50;;;1.40;;
8333;SDS011;4204;43.004;23.052;2023-03-11T04:53:56;1.60;;;1.50;;
8333;SDS011;4204;43.004;23.052;2023-03-11T04:56:24;2.60;;;1.93;;
8333;SDS011;4204;43.004;23.052;2023-03-11T04:58:52;2.20;;;1.50;;
8333;SDS011;4204;43.004;23.052;2023-03-11T05:01:21;2.70;;;2.23;;
8333;SDS011;4204;43.004;23.052;2023-03-11T05:03:51;1.90;;;1.80;;
8333;SDS011;4204;43.004;23.052;2023-03-11T05:06:18;8.30;;;7.63;;
8333;SDS011;4204;43.004;23.052;2023-03-11T05:08:47;3.30;;;2.73;;
8333;SDS011;4204;43.004;23.052;2023-03-11T05:11:17;2.23;;;1.73;;
8333;SDS011;4204;43.004;23.052;2023-03-11T05:13:46;1.60;;;1.30;;
8333;SDS011;4204;43.004;23.052;2023-03-11T05:16:14;1.50;;;1.40;;
8333;SDS011;4204;43.004;23.052;2023-03-11T05:18:42;5.23;;;3.30;;
8333;SDS011;4204;43.004;23.052;2023-03-11T05:21:13;3.00;;;2.27;;
8333;SDS011;4204;43.004;23.052;2023-03-11T05:23:41;2.13;;;1.80;;
8333;SDS011;4204;43.004;23.052;2023-03-11T05:26:09;3.67;;;2.60;;
8333;SDS011;4204;43.004;23.052;2023-03-11T05:28:42;1.60;;;1.50;;
8333;SDS011;4204;43.004;23.052;2023-03-11T05:31:10;1.73;;;1.63;;
8333;SDS011;4204;43.004;23.052;2023-03-11T05:33:38;1.90;;;1.70;;
8333;SDS011;4204;43.004;23.052;2023-03-11T05:36:10;1.93;;;1.63;;
8333;SDS011;4204;43.004;23.052;2023-03-11T05:38:41;2.13;;;1.93;;
8333;SDS011;4204;43.004;23.052;2023-03-11T05:41:09;2.10;;;1.60;;
8333;SDS011;4204;43.004;23.052;2023-03-11T05:43:38;2.40;;;1.80;;
8333;SDS011;4204;43.004;23.052;2023-03-11T05:46:07;2.83;;;1.70;;
8333;SDS011;4204;43.004;23.052;2023-03-11T05:48:35;1.77;;;1.50;;
8333;SDS011;4204;43.004;23.052;2023-03-11T05:51:05;2.00;;;1.80;;
8333;SDS011;4204;43.004;23.052;2023-03-11T05:53:33;2.07;;;1.60;;
8333;SDS011;4204;43.004;23.052;2023-03-11T05:56:01;2.27;;;1.73;;
8333;SDS011;4204;43.004;23.052;2023-03-11T05:58:30;1.97;;;1.80;;
8333;SDS011;4204;43.004;23.052;2023-03-11T06:00:59;2.33;;;1.80;;
8333;SDS011;4204;43.004;23.052;2023-03-11T06:03:28;1.90;;;1.70;;
8333;SDS011;4204;43.004;23.052;2023-03-11T06:05:56;2.03;;;1.90;;
8333;SDS011;4204;43.004;23.052;2023-03-11T06:08:24;2.10;;;1.80;;
8333;SDS011;4204;43.004;23.052;2023-03-11T06:10:52;2.00;;;1.90;;
8333;SDS011;4204;43.004;23.052;2023-03-11T06:13:27;3.20;;;2.10;;
8333;SDS011;4204;43.004;23.052;2023-03-11T06:15:55;2.10;;;1.80;;
8333;SDS011;4204;43.004;23.052;2023-03-11T06:18:24;2.10;;;1.90;;
8333;SDS011;4204;43.004;23.052;2023-03-11T06:20:53;1.97;;;1.77;;
8333;SDS011;4204;43.004;23.052;2023-03-11T06:23:25;2.20;;;2.00;;
8333;SDS011;4204;43.004;23.052;2023-03-11T06:25:56;4.87;;;2.50;;
8333;SDS011;4204;43.004;23.052;2023-03-11T06:28:25;2.70;;;2.43;;
8333;SDS011;4204;43.004;23.052;2023-03-11T06:30:54;4.60;;;3.50;;
8333;SDS011;4204;43.004;23.052;2023-03-11T06:33:22;5.20;;;4.07;;
8333;SDS011;4204;43.004;23.052;2023-03-11T06:35:58;4.73;;;3.67;;
8333;SDS011;4204;43.004;23.052;2023-03-11T06:38:27;10.67;;;7.50;;
8333;SDS011;4204;43.004;23.052;2023-03-11T06:40:57;11.30;;;6.50;;
8333;SDS011;4204;43.004;23.052;2023-03-11T06:43:26;4.63;;;4.17;;
8333;SDS011;4204;43.004;23.052;2023-03-11T06:45:54;4.03;;;2.73;;
8333;SDS011;4204;43.004;23.052;2023-03-11T06:48:22;4.17;;;2.50;;
8333;SDS011;4204;43.004;23.052;2023-03-11T06:50:52;3.57;;;2.87;;
8333;SDS011;4204;43.004;23.052;2023-03-11T06:53:23;5.30;;;3.53;;
8333;SDS011;4204;43.004;23.052;2023-03-11T06:55:58;8.60;;;5.70;;
8333;SDS011;4204;43.004;23.052;2023-03-11T06:58:30;6.90;;;4.97;;
8333;SDS011;4204;43.004;23.052;2023-03-11T07:00:59;6.80;;;4.17;;
8333;SDS011;4204;43.004;23.052;2023-03-11T07:03:28;4.90;;;3.80;;
8333;SDS011;4204;43.004;23.052;2023-03-11T07:05:57;6.67;;;4.40;;
8333;SDS011;4204;43.004;23.052;2023-03-11T07:08:27;6.97;;;4.80;;
8333;SDS011;4204;43.004;23.052;2023-03-11T07:10:59;4.20;;;3.80;;
8333;SDS011;4204;43.004;23.052;2023-03-11T07:13:27;3.63;;;3.27;;
8333;SDS011;4204;43.004;23.052;2023-03-11T07:15:59;3.73;;;3.17;;
8333;SDS011;4204;43.004;23.052;2023-03-11T07:18:27;5.07;;;3.50;;
8333;SDS011;4204;43.004;23.052;2023-03-11T07:20:55;4.83;;;3.73;;
8333;SDS011;4204;43.004;23.052;2023-03-11T07:23:23;4.87;;;3.90;;
8333;SDS011;4204;43.004;23.052;2023-03-11T07:25:52;7.37;;;5.00;;
8333;SDS011;4204;43.004;23.052;2023-03-11T07:28:20;6.30;;;4.50;;
8333;SDS011;4204;43.004;23.052;2023-03-11T07:30:48;6.60;;;4.43;;
8333;SDS011;4204;43.004;23.052;2023-03-11T07:33:17;7.43;;;5.23;;
8333;SDS011;4204;43.004;23.052;2023-03-11T07:35:45;6.63;;;4.23;;
8333;SDS011;4204;43.004;23.052;2023-03-11T07:38:14;5.13;;;4.27;;
8333;SDS011;4204;43.004;23.052;2023-03-11T07:40:42;8.00;;;5.37;;
8333;SDS011;4204;43.004;23.052;2023-03-11T07:43:11;8.67;;;5.70;;
8333;SDS011;4204;43.004;23.052;2023-03-11T07:45:39;5.17;;;4.67;;
8333;SDS011;4204;43.004;23.052;2023-03-11T07:48:07;6.53;;;4.13;;
8333;SDS011;4204;43.004;23.052;2023-03-11T07:50:36;4.70;;;3.90;;
8333;SDS011;4204;43.004;23.052;2023-03-11T07:53:04;4.10;;;3.70;;
8333;SDS011;4204;43.004;23.052;2023-03-11T07:55:32;5.93;;;3.83;;
8333;SDS011;4204;43.004;23.052;2023-03-11T07:58:00;4.23;;;3.80;;
8333;SDS011;4204;43.004;23.052;2023-03-11T08:00:29;3.20;;;2.90;;
8333;SDS011;4204;43.004;23.052;2023-03-11T08:02:57;4.23;;;3.13;;
8333;SDS011;4204;43.004;23.052;2023-03-11T08:05:26;8.47;;;5.13;;
8333;SDS011;4204;43.004;23.052;2023-03-11T08:07:54;3.53;;;2.93;;
8333;SDS011;4204;43.004;23.052;2023-03-11T08:10:22;2.33;;;2.13;;
8333;SDS011;4204;43.004;23.052;2023-03-11T08:12:50;3.70;;;2.00;;
8333;SDS011;4204;43.004;23.052;2023-03-11T08:15:17;3.07;;;2.63;;
8333;SDS011;4204;43.004;23.052;2023-03-11T08:17:49;13.50;;;9.23;;
8333;SDS011;4204;43.004;23.052;2023-03-11T08:20:16;2.60;;;2.40;;
8333;SDS011;4204;43.004;23.052;2023-03-11T08:22:44;3.17;;;1.97;;
8333;SDS011;4204;43.004;23.052;2023-03-11T08:25:12;2.53;;;2.13;;
8333;SDS011;4204;43.004;23.052;2023-03-11T08:27:40;5.43;;;2.67;;
8333;SDS011;4204;43.004;23.052;2023-03-11T08:30:08;1.80;;;1.70;;
8333;SDS011;4204;43.004;23.052;2023-03-11T08:32:37;3.07;;;1.90;;
8333;SDS011;4204;43.004;23.052;2023-03-11T08:35:06;2.93;;;2.07;;
8333;SDS011;4204;43.004;23.052;2023-03-11T08:37:34;2.23;;;2.03;;
8333;SDS011;4204;43.004;23.052;2023-03-11T08:40:02;2.03;;;1.83;;
8333;SDS011;4204;43.004;23.052;2023-03-11T08:42:31;2.17;;;1.90;;
8333;SDS011;4204;43.004;23.052;2023-03-11T08:44:58;3.47;;;2.00;;
8333;SDS011;4204;43.004;23.052;2023-03-11T08:47:26;1.93;;;1.73;;
8333;SDS011;4204;43.004;23.052;2023-03-11T08:49:54;2.77;;;2.33;;
8333;SDS011;4204;43.004;23.052;2023-03-11T08:52:24;2.17;;;1.97;;
8333;SDS011;4204;43.004;23.052;2023-03-11T08:54:52;2.13;;;1.93;;
8333;SDS011;4204;43.004;23.052;2023-03-11T08:57:19;1.90;;;1.70;;
8333;SDS011;4204;43.004;23.052;2023-03-11T08:59:47;2.30;;;1.67;;
8333;SDS011;4204;43.004;23.052;2023-03-11T09:02:15;6.37;;;3.13;;
8333;SDS011;4204;43.004;23.052;2023-03-11T09:04:43;6.17;;;5.27;;
8333;SDS011;4204;43.004;23.052;2023-03-11T09:07:16;2.27;;;2.07;;
8333;SDS011;4204;43.004;23.052;2023-03-11T09:09:45;4.20;;;2.20;;
8333;SDS011;4204;43.004;23.052;2023-03-11T09:12:13;4.63;;;3.43;;
8333;SDS011;4204;43.004;23.052;2023-03-11T09:14:41;3.80;;;2.10;;
8333;SDS011;4204;43.004;23.052;2023-03-11T09:17:09;2.70;;;1.90;;
8333;SDS011;4204;43.004;23.052;2023-03-11T09:19:39;2.80;;;2.10;;
8333;SDS011;4204;43.004;23.052;2023-03-11T09:22:07;6.07;;;3.17;;
8333;SDS011;4204;43.004;23.052;2023-03-11T09:24:35;2.53;;;1.90;;
8333;SDS011;4204;43.004;23.052;2023-03-11T09:27:04;4.40;;;3.93;;
8333;SDS011;4204;43.004;23.052;2023-03-11T09:29:32;3.03;;;1.90;;
8333;SDS011;4204;43.004;23.052;2023-03-11T09:32:00;3.00;;;2.60;;
8333;SDS011;4204;43.004;23.052;2023-03-11T09:34:28;5.77;;;4.20;;
8333;SDS011;4204;43.004;23.052;2023-03-11T09:36:55;4.13;;;2.00;;
8333;SDS011;4204;43.004;23.052;2023-03-11T09:39:23;6.70;;;4.67;;
8333;SDS011;4204;43.004;23.052;2023-03-11T09:41:52;4.93;;;4.43;;
8333;SDS011;4204;43.004;23.052;2023-03-11T09:44:24;5.90;;;3.23;;
8333;SDS011;4204;43.004;23.052;2023-03-11T09:50:05;16.87;;;11.07;;
8333;SDS011;4204;43.004;23.052;2023-03-11T09:52:45;4.87;;;4.13;;
8333;SDS011;4204;43.004;23.052;2023-03-11T09:55:36;9.30;;;6.93;;
8333;SDS011;4204;43.004;23.052;2023-03-11T09:58:09;4.33;;;3.63;;
8333;SDS011;4204;43.004;23.052;2023-03-11T10:00:45;9.17;;;7.30;;
8333;SDS011;4204;43.004;23.052;2023-03-11T10:03:20;7.97;;;5.07;;
8333;SDS011;4204;43.004;23.052;2023-03-11T10:05:53;5.47;;;4.40;;
8333;SDS011;4204;43.004;23.052;2023-03-11T10:08:31;9.80;;;7.80;;
8333;SDS011;4204;43.004;23.052;2023-03-11T10:11:07;6.73;;;4.93;;
8333;SDS011;4204;43.004;23.052;2023-03-11T10:13:49;10.50;;;7.17;;
8333;SDS011;4204;43.004;23.052;2023-03-11T10:16:24;7.10;;;3.40;;
8333;SDS011;4204;43.004;23.052;2023-03-11T10:18:59;4.10;;;3.10;;
8333;SDS011;4204;43.004;23.052;2023-03-11T10:21:37;6.13;;;4.03;;
8333;SDS011;4204;43.004;23.052;2023-03-11T10:24:17;9.53;;;8.07;;
8333;SDS011;4204;43.004;23.052;2023-03-11T10:27:05;4.10;;;2.77;;
8333;SDS011;4204;43.004;23.052;2023-03-11T10:29:42;3.70;;;1.93;;
8333;SDS011;4204;43.004;23.052;2023-03-11T10:32:20;4.23;;;1.97;;
8333;SDS011;4204;43.004;23.052;2023-03-11T10:34:53;4.47;;;2.20;;
8333;SDS011;4204;43.004;23.052;2023-03-11T10:37:26;3.93;;;3.27;;
8333;SDS011;4204;43.004;23.052;2023-03-11T10:39:59;4.97;;;4.47;;
8333;SDS011;4204;43.004;23.052;2023-03-11T10:42:35;4.03;;;2.93;;
8333;SDS011;4204;43.004;23.052;2023-03-11T10:45:04;3.10;;;2.80;;
8333;SDS011;4204;43.004;23.052;2023-03-11T10:47:40;4.57;;;3.83;;
8333;SDS011;4204;43.004;23.052;2023-03-11T10:50:09;8.40;;;5.40;;
8333;SDS011;4204;43.004;23.052;2023-03-11T10:52:42;10.20;;;5.33;;
8333;SDS011;4204;43.004;23.052;2023-03-11T10:55:30;7.43;;;5.03;;
8333;SDS011;4204;43.004;23.052;2023-03-11T10:58:03;5.60;;;4.30;;
8333;SDS011;4204;43.004;23.052;2023-03-11T11:00:32;7.23;;;4.37;;
8333;SDS011;4204;43.004;23.052;2023-03-11T11:03:02;8.10;;;3.23;;
8333;SDS011;4204;43.004;23.052;2023-03-11T11:05:32;5.30;;;4.07;;
8333;SDS011;4204;43.004;23.052;2023-03-11T11:08:05;8.30;;;5.40;;
8333;SDS011;4204;43.004;23.052;2023-03-11T11:10:36;6.87;;;4.90;;
8333;SDS011;4204;43.004;23.052;2023-03-11T11:13:15;6.30;;;4.37;;
8333;SDS011;4204;43.004;23.052;2023-03-11T11:15:55;6.30;;;4.83;;
8333;SDS011;4204;43.004;23.052;2023-03-11T11:18:27;4.87;;;2.43;;
8333;SDS011;4204;43.004;23.052;2023-03-11T11:20:59;22.43;;;14.07;;
8333;SDS011;4204;43.004;23.052;2023-03-11T11:23:33;8.23;;;5.17;;
8333;SDS011;4204;43.004;23.052;2023-03-11T11:26:05;20.07;;;12.20;;
8333;SDS011;4204;43.004;23.052;2023-03-11T11:28:40;6.90;;;4.53;;
8333;SDS011;4204;43.004;23.052;2023-03-11T11:31:18;6.57;;;2.90;;
8333;SDS011;4204;43.004;23.052;2023-03-11T11:33:49;8.17;;;4.77;;
8333;SDS011;4204;43.004;23.052;2023-03-11T11:36:19;4.73;;;2.83;;
8333;SDS011;4204;43.004;23.052;2023-03-11T11:38:49;51.13;;;28.27;;
8333;SDS011;4204;43.004;23.052;2023-03-11T11:41:20;5.97;;;4.30;;
8333;SDS011;4204;43.004;23.052;2023-03-11T11:43:50;9.33;;;6.10;;
8333;SDS011;4204;43.004;23.052;2023-03-11T11:46:21;12.93;;;10.23;;
8333;SDS011;4204;43.004;23.052;2023-03-11T11:48:57;19.30;;;14.97;;
8333;SDS011;4204;43.004;23.052;2023-03-11T11:51:34;28.33;;;18.27;;
8333;SDS011;4204;43.004;23.052;2023-03-11T11:54:10;31.70;;;24.20;;
8333;SDS011;4204;43.004;23.052;2023-03-11T11:56:43;28.90;;;21.87;;
8333;SDS011;4204;43.004;23.052;2023-03-11T11:59:12;26.53;;;23.63;;
8333;SDS011;4204;43.004;23.052;2023-03-11T12:01:45;12.90;;;11.60;;
8333;SDS011;4204;43.004;23.052;2023-03-11T12:04:30;13.30;;;10.80;;
8333;SDS011;4204;43.004;23.052;2023-03-11T12:10:09;3.77;;;3.30;;
8333;SDS011;4204;43.004;23.052;2023-03-11T12:12:51;8.27;;;5.80;;
8333;SDS011;4204;43.004;23.052;2023-03-11T12:15:32;9.57;;;7.10;;
8333;SDS011;4204;43.004;23.052;2023-03-11T12:18:08;15.43;;;12.70;;
8333;SDS011;4204;43.004;23.052;2023-03-11T12:20:44;18.00;;;12.67;;
8333;SDS011;4204;43.004;23.052;2023-03-11T12:23:16;10.83;;;9.07;;
8333;SDS011;4204;43.004;23.052;2023-03-11T12:25:50;18.40;;;12.77;;
8333;SDS011;4204;43.004;23.052;2023-03-11T12:28:29;12.50;;;9.23;;
8333;SDS011;4204;43.004;23.052;2023-03-11T12:31:07;7.43;;;4.33;;
8333;SDS011;4204;43.004;23.052;2023-03-11T12:33:37;9.50;;;7.20;;
8333;SDS011;4204;43.004;23.052;2023-03-11T12:36:16;11.30;;;4.60;;
8333;SDS011;4204;43.004;23.052;2023-03-11T12:38:50;28.20;;;18.70;;
8333;SDS011;4204;43.004;23.052;2023-03-11T12:41:28;15.30;;;12.73;;
8333;SDS011;4204;43.004;23.052;2023-03-11T12:43:59;34.20;;;22.10;;
8333;SDS011;4204;43.004;23.052;2023-03-11T12:49:39;9.10;;;5.40;;
8333;SDS011;4204;43.004;23.052;2023-03-11T12:52:17;3.57;;;2.70;;
8333;SDS011;4204;43.004;23.052;2023-03-11T12:54:47;11.07;;;7.73;;
8333;SDS011;4204;43.004;23.052;2023-03-11T12:57:36;12.60;;;9.60;;
8333;SDS011;4204;43.004;23.052;2023-03-11T13:00:17;6.43;;;4.93;;
8333;SDS011;4204;43.004;23.052;2023-03-11T13:05:59;19.37;;;12.87;;
8333;SDS011;4204;43.004;23.052;2023-03-11T13:08:43;9.67;;;6.80;;
8333;SDS011;4204;43.004;23.052;2023-03-11T13:11:26;8.63;;;6.27;;
8333;SDS011;4204;43.004;23.052;2023-03-11T13:14:09;84.27;;;50.20;;
8333;SDS011;4204;43.004;23.052;2023-03-11T13:16:50;65.10;;;39.67;;
8333;SDS011;4204;43.004;23.052;2023-03-11T13:19:31;29.67;;;18.37;;
8333;SDS011;4204;43.004;23.052;2023-03-11T13:22:04;23.87;;;15.57;;
8333;SDS011;4204;43.004;23.052;2023-03-11T13:24:56;20.10;;;14.07;;
8333;SDS011;4204;43.004;23.052;2023-03-11T13:27:27;44.90;;;28.33;;
8333;SDS011;4204;43.004;23.052;2023-03-11T13:30:07;8.80;;;6.63;;
8333;SDS011;4204;43.004;23.052;2023-03-11T13:32:52;8.47;;;5.87;;
8333;SDS011;4204;43.004;23.052;2023-03-11T13:35:32;5.93;;;4.13;;
8333;SDS011;4204;43.004;23.052;2023-03-11T13:38:13;4.77;;;3.37;;
8333;SDS011;4204;43.004;23.052;2023-03-11T13:40:53;39.33;;;22.40;;
8333;SDS011;4204;43.004;23.052;2023-03-11T13:43:22;75.70;;;41.90;;
8333;SDS011;4204;43.004;23.052;2023-03-11T13:45:52;91.23;;;49.40;;
8333;SDS011;4204;43.004;23.052;2023-03-11T13:48:23;130.43;;;72.50;;
8333;SDS011;4204;43.004;23.052;2023-03-11T13:50:58;28.07;;;19.47;;
8333;SDS011;4204;43.004;23.052;2023-03-11T13:53:31;35.37;;;23.77;;
8333;SDS011;4204;43.004;23.052;2023-03-11T13:56:03;30.30;;;20.07;;
8333;SDS011;4204;43.004;23.052;2023-03-11T13:58:32;24.60;;;16.60;;
8333;SDS011;4204;43.004;23.052;2023-03-11T14:01:00;92.27;;;51.00;;
8333;SDS011;4204;43.004;23.052;2023-03-11T14:03:30;31.63;;;22.13;;
8333;SDS011;4204;43.004;23.052;2023-03-11T14:06:07;26.87;;;17.77;;
8333;SDS011;4204;43.004;23.052;2023-03-11T14:08:39;6.87;;;5.80;;
8333;SDS011;4204;43.004;23.052;2023-03-11T14:11:15;10.00;;;7.27;;
8333;SDS011;4204;43.004;23.052;2023-03-11T14:13:45;8.83;;;6.90;;
8333;SDS011;4204;43.004;23.052;2023-03-11T14:16:15;13.27;;;9.57;;
8333;SDS011;4204;43.004;23.052;2023-03-11T14:18:47;3.83;;;2.30;;
8333;SDS011;4204;43.004;23.052;2023-03-11T14:21:26;2.30;;;2.10;;
8333;SDS011;4204;43.004;23.052;2023-03-11T14:23:55;2.77;;;2.27;;
8333;SDS011;4204;43.004;23.052;2023-03-11T14:26:25;2.80;;;2.10;;
8333;SDS011;4204;43.004;23.052;2023-03-11T14:28:56;2.80;;;2.13;;
8333;SDS011;4204;43.004;23.052;2023-03-11T14:31:30;2.33;;;2.13;;
8333;SDS011;4204;43.004;23.052;2023-03-11T14:34:00;2.93;;;2.63;;
8333;SDS011;4204;43.004;23.052;2023-03-11T14:36:39;2.70;;;2.50;;
8333;SDS011;4204;43.004;23.052;2023-03-11T14:39:25;4.73;;;2.63;;
8333;SDS011;4204;43.004;23.052;2023-03-11T14:41:57;7.90;;;5.73;;
8333;SDS011;4204;43.004;23.052;2023-03-11T14:44:30;9.60;;;6.93;;
8333;SDS011;4204;43.004;23.052;2023-03-11T14:47:03;7.80;;;5.20;;
8333;SDS011;4204;43.004;23.052;2023-03-11T14:49:36;6.53;;;5.17;;
8333;SDS011;4204;43.004;23.052;2023-03-11T14:52:07;7.70;;;6.47;;
8333;SDS011;4204;43.004;23.052;2023-03-11T14:54:40;9.87;;;5.17;;
8333;SDS011;4204;43.004;23.052;2023-03-11T14:57:13;4.67;;;3.53;;
8333;SDS011;4204;43.004;23.052;2023-03-11T14:59:48;4.53;;;3.20;;
8333;SDS011;4204;43.004;23.052;2023-03-11T15:02:26;5.57;;;3.70;;
8333;SDS011;4204;43.004;23.052;2023-03-11T15:05:07;5.93;;;4.00;;
8333;SDS011;4204;43.004;23.052;2023-03-11T15:07:44;8.20;;;6.83;;
8333;SDS011;4204;43.004;23.052;2023-03-11T15:10:14;6.83;;;6.13;;
8333;SDS011;4204;43.004;23.052;2023-03-11T15:12:43;12.60;;;9.50;;
8333;SDS011;4204;43.004;23.052;2023-03-11T15:15:23;8.33;;;6.77;;
8333;SDS011;4204;43.004;23.052;2023-03-11T15:17:53;8.47;;;7.63;;
8333;SDS011;4204;43.004;23.052;2023-03-11T15:20:25;7.97;;;7.17;;
8333;SDS011;4204;43.004;23.052;2023-03-11T15:22:56;9.70;;;8.00;;
8333;SDS011;4204;43.004;23.052;2023-03-11T15:25:27;8.83;;;7.73;;
8333;SDS011;4204;43.004;23.052;2023-03-11T15:27:59;8.27;;;7.40;;
8333;SDS011;4204;43.004;23.052;2023-03-11T15:30:40;7.63;;;6.83;;
8333;SDS011;4204;43.004;23.052;2023-03-11T15:33:18;6.57;;;5.97;;
8333;SDS011;4204;43.004;23.052;2023-03-11T15:35:48;7.27;;;6.40;;